Time;durP1;ratioP1;P1;durP2;ratioP2;P2;SDS_P1;SDS_P2;PMS_P1;PMS_P2;Temp;Humidity;BMP_temperature;BMP_pressure;BME280_temperature;BME280_humidity;BME280_pressure;Samples;Min_cycle;Max_cycle;Signal;HPM_P1;HPM_P2
2022/04/13 00:01:14;;;;;;;10.50;4.32;;;8.80;99.90;;;;;;5091330;28;20004;-70
2022/04/13 00:03:41;;;;;;;7.25;3.70;;;8.60;99.90;;;;;;5090077;28;20181;-70
2022/04/13 00:06:07;;;;;;;7.20;3.53;;;8.50;99.90;;;;;;5071175;28;20027;-70
2022/04/13 00:08:33;;;;;;;10.98;4.40;;;8.60;99.90;;;;;;5070962;28;20064;-69
2022/04/13 00:11:00;;;;;;;12.05;4.20;;;8.60;99.90;;;;;;5085280;28;20020;-71
2022/04/13 00:13:26;;;;;;;8.77;4.28;;;8.60;99.90;;;;;;5091142;28;20038;-70
2022/04/13 00:15:51;;;;;;;12.35;4.03;;;8.60;99.90;;;;;;5091003;28;20047;-70
2022/04/13 00:18:17;;;;;;;11.43;4.07;;;8.40;99.90;;;;;;5091340;28;20024;-70
2022/04/13 00:20:42;;;;;;;11.48;4.05;;;8.40;99.90;;;;;;5084547;28;20032;-69
2022/04/13 00:23:08;;;;;;;11.30;3.80;;;8.40;99.90;;;;;;5091132;28;20126;-71
2022/04/13 00:25:38;;;;;;;15.32;3.63;;;8.40;99.90;;;;;;5090773;28;20015;-70
2022/04/13 00:28:04;;;;;;;11.50;4.00;;;8.30;99.90;;;;;;5090994;28;20023;-70
2022/04/13 00:30:30;;;;;;;9.40;3.92;;;8.30;99.90;;;;;;5090888;28;20028;-69
2022/04/13 00:32:56;;;;;;;10.13;4.13;;;8.20;99.90;;;;;;5090692;28;20027;-71
2022/04/13 00:35:21;;;;;;;12.02;4.25;;;8.10;99.90;;;;;;5077206;28;20032;-70
2022/04/13 00:37:47;;;;;;;13.68;4.75;;;8.00;99.90;;;;;;5070464;28;20025;-70
2022/04/13 00:40:13;;;;;;;12.73;6.35;;;7.80;99.90;;;;;;5076511;28;20515;-70
2022/04/13 00:42:38;;;;;;;14.75;7.72;;;7.70;99.90;;;;;;5090895;28;20024;-70
2022/04/13 00:45:05;;;;;;;18.52;9.32;;;7.60;99.90;;;;;;5090758;28;20601;-69
2022/04/13 00:47:30;;;;;;;20.63;10.10;;;7.50;99.90;;;;;;5090370;28;20066;-71
2022/04/13 00:49:56;;;;;;;21.90;8.57;;;7.40;99.90;;;;;;5086806;28;20067;-70
2022/04/13 00:52:26;;;;;;;23.38;9.45;;;7.40;99.90;;;;;;5090838;28;20024;-70
2022/04/13 00:54:54;;;;;;;22.58;11.30;;;7.30;99.90;;;;;;5094689;28;20032;-70
2022/04/13 00:57:22;;;;;;;28.75;10.75;;;7.30;99.90;;;;;;5094670;28;20020;-71
2022/04/13 00:59:53;;;;;;;18.55;10.70;;;7.20;99.90;;;;;;5094396;28;20348;-72
2022/04/13 01:02:19;;;;;;;22.92;10.98;;;7.10;99.90;;;;;;5092842;28;20481;-71
2022/04/13 01:04:46;;;;;;;22.38;11.57;;;7.10;99.90;;;;;;5084689;28;20142;-70
2022/04/13 01:07:12;;;;;;;25.08;11.27;;;7.00;99.90;;;;;;5071163;28;20021;-70
2022/04/13 01:09:40;;;;;;;23.55;10.85;;;7.00;99.90;;;;;;5075276;28;20499;-71
2022/04/13 01:12:06;;;;;;;33.70;12.70;;;7.00;99.90;;;;;;5094511;28;20457;-70
2022/04/13 01:14:32;;;;;;;34.80;12.65;;;7.20;99.90;;;;;;5094429;28;20063;-71
2022/04/13 01:16:59;;;;;;;19.75;9.45;;;7.20;99.90;;;;;;5094238;28;20040;-70
2022/04/13 01:19:25;;;;;;;26.48;10.52;;;7.50;99.90;;;;;;5092040;28;20028;-70
2022/04/13 01:21:59;;;;;;;19.05;7.70;;;7.70;99.90;;;;;;5094274;28;20069;-70
2022/04/13 01:24:25;;;;;;;25.55;11.65;;;8.00;99.90;;;;;;5094195;28;20032;-70
2022/04/13 01:26:51;;;;;;;27.25;12.27;;;8.20;99.90;;;;;;5094196;28;20028;-70
2022/04/13 01:29:17;;;;;;;25.98;12.10;;;8.10;99.90;;;;;;5094276;28;20468;-70
2022/04/13 01:31:44;;;;;;;21.98;10.25;;;7.90;99.90;;;;;;5093760;28;20028;-70
2022/04/13 01:34:11;;;;;;;22.00;9.48;;;7.80;99.90;;;;;;5094430;28;20024;-70
2022/04/13 01:36:37;;;;;;;11.90;6.80;;;7.70;99.90;;;;;;5089075;28;20060;-70
2022/04/13 01:39:05;;;;;;;13.88;7.63;;;7.90;99.90;;;;;;5073654;28;20021;-70
2022/04/13 01:41:31;;;;;;;27.98;12.15;;;7.80;99.90;;;;;;5091290;28;20027;-70
2022/04/13 01:43:57;;;;;;;23.90;11.85;;;7.80;99.90;;;;;;5093743;28;20081;-70
2022/04/13 01:46:23;;;;;;;25.88;11.60;;;7.60;99.90;;;;;;5092990;28;20545;-69
2022/04/13 01:48:48;;;;;;;28.33;12.43;;;7.60;99.90;;;;;;5075398;28;20040;-70
2022/04/13 01:51:17;;;;;;;31.60;12.75;;;7.60;99.90;;;;;;5070098;28;20092;-70
2022/04/13 01:53:43;;;;;;;26.80;12.15;;;7.50;99.90;;;;;;5070053;28;20590;-70
2022/04/13 01:56:09;;;;;;;28.98;13.32;;;7.60;99.90;;;;;;5068779;28;20020;-70
2022/04/13 01:58:35;;;;;;;38.15;15.40;;;7.60;99.90;;;;;;5082081;28;20461;-69
2022/04/13 02:01:00;;;;;;;29.35;14.05;;;7.70;99.90;;;;;;5090203;28;20111;-70
2022/04/13 02:03:27;;;;;;;32.33;14.77;;;7.80;99.90;;;;;;5081887;28;20103;-70
2022/04/13 02:05:53;;;;;;;35.70;14.95;;;7.80;99.90;;;;;;5071898;28;20033;-70
2022/04/13 02:08:22;;;;;;;37.38;15.88;;;7.90;99.90;;;;;;5082821;28;20042;-70
2022/04/13 02:10:49;;;;;;;40.08;17.65;;;8.00;99.90;;;;;;5093372;28;20031;-71
2022/04/13 02:13:15;;;;;;;42.33;16.00;;;8.00;99.90;;;;;;5093410;28;20031;-70
2022/04/13 02:15:41;;;;;;;37.78;16.42;;;8.10;99.90;;;;;;5093150;28;20587;-70
2022/04/13 02:18:07;;;;;;;39.53;16.15;;;8.20;99.90;;;;;;5086534;28;20120;-70
2022/04/13 02:20:33;;;;;;;37.75;15.60;;;8.30;99.90;;;;;;5072809;28;20104;-70
2022/04/13 02:23:01;;;;;;;39.47;15.68;;;8.30;99.90;;;;;;5072972;28;20028;-71
2022/04/13 02:25:27;;;;;;;37.20;15.85;;;8.20;99.90;;;;;;5073019;28;20028;-70
2022/04/13 02:27:53;;;;;;;38.88;14.50;;;8.20;99.90;;;;;;5078722;28;20078;-69
2022/04/13 02:30:18;;;;;;;39.17;14.70;;;8.20;99.90;;;;;;5092987;28;20029;-69
2022/04/13 02:32:44;;;;;;;34.40;12.63;;;8.20;99.90;;;;;;5088236;28;20028;-69
2022/04/13 02:35:11;;;;;;;38.08;12.02;;;8.30;99.90;;;;;;5069839;28;20149;-69
2022/04/13 02:37:38;;;;;;;23.85;11.38;;;8.50;99.90;;;;;;5072815;28;20083;-69
2022/04/13 02:40:06;;;;;;;32.83;12.23;;;8.60;99.90;;;;;;5089222;28;20479;-69
2022/04/13 02:42:35;;;;;;;29.20;10.32;;;8.70;99.90;;;;;;5072242;28;20527;-69
2022/04/13 02:45:02;;;;;;;28.90;10.48;;;8.90;99.90;;;;;;5092808;28;20032;-70
2022/04/13 02:47:28;;;;;;;28.63;9.65;;;9.00;99.90;;;;;;5092581;28;20017;-70
2022/04/13 02:49:56;;;;;;;28.70;10.75;;;9.00;99.90;;;;;;5073705;28;20120;-70
2022/04/13 02:52:25;;;;;;;44.90;15.10;;;9.10;99.90;;;;;;5074393;28;20085;-69
2022/04/13 02:54:51;;;;;;;41.30;14.80;;;9.00;99.90;;;;;;5072264;28;20095;-70
2022/04/13 02:57:17;;;;;;;32.80;11.77;;;8.80;99.90;;;;;;5072720;28;20024;-70
2022/04/13 02:59:46;;;;;;;35.55;11.73;;;8.80;99.90;;;;;;5092427;28;20115;-70
2022/04/13 03:02:14;;;;;;;30.73;12.43;;;8.90;99.90;;;;;;5092466;28;20080;-70
2022/04/13 03:04:45;;;;;;;34.63;11.70;;;8.90;99.90;;;;;;5087046;28;20028;-71
2022/04/13 03:07:11;;;;;;;34.95;12.85;;;8.90;99.90;;;;;;5072321;28;20062;-69
2022/04/13 03:09:38;;;;;;;43.00;14.68;;;9.00;99.90;;;;;;5091768;28;20036;-69
2022/04/13 03:12:06;;;;;;;44.88;15.57;;;8.90;99.90;;;;;;5092224;28;20026;-70
2022/04/13 03:14:32;;;;;;;39.50;15.20;;;8.90;99.90;;;;;;5092067;28;20024;-70
2022/04/13 03:16:57;;;;;;;37.88;14.93;;;8.80;99.90;;;;;;5091638;28;20536;-70
2022/04/13 03:19:23;;;;;;;42.65;15.02;;;8.80;99.90;;;;;;5079352;28;20117;-70
2022/04/13 03:21:51;;;;;;;33.10;14.65;;;8.80;99.90;;;;;;5071465;28;20044;-69
2022/04/13 03:24:18;;;;;;;34.70;13.98;;;8.80;99.90;;;;;;5071837;28;20115;-70
2022/04/13 03:26:43;;;;;;;41.15;15.02;;;8.80;99.90;;;;;;5071666;28;20111;-70
2022/04/13 03:29:09;;;;;;;34.85;13.88;;;8.80;99.90;;;;;;5087353;28;20104;-69
2022/04/13 03:31:35;;;;;;;36.25;14.20;;;8.80;99.90;;;;;;5091716;28;20095;-70
2022/04/13 03:34:02;;;;;;;35.05;14.70;;;8.80;99.90;;;;;;5083320;28;20029;-69
2022/04/13 03:36:28;;;;;;;47.65;15.65;;;8.80;99.90;;;;;;5071523;28;20583;-70
2022/04/13 03:38:54;;;;;;;44.35;15.75;;;8.90;99.90;;;;;;5085013;28;20055;-70
2022/04/13 03:41:20;;;;;;;40.45;16.10;;;8.80;99.90;;;;;;5091843;28;20016;-70
2022/04/13 03:43:45;;;;;;;40.70;14.73;;;8.80;99.90;;;;;;5091910;28;20094;-69
2022/04/13 03:46:11;;;;;;;41.22;15.63;;;8.80;99.90;;;;;;5091825;28;20030;-70
2022/04/13 03:48:37;;;;;;;49.72;14.77;;;8.80;99.90;;;;;;5087248;28;20097;-70
2022/04/13 03:51:03;;;;;;;46.08;16.13;;;8.90;99.90;;;;;;5071316;28;20483;-71
2022/04/13 03:53:29;;;;;;;39.40;15.38;;;8.80;99.90;;;;;;5071271;28;20449;-70
2022/04/13 03:55:55;;;;;;;47.63;15.98;;;8.80;99.90;;;;;;5071231;28;20108;-71
2022/04/13 03:58:21;;;;;;;45.40;15.60;;;8.80;99.90;;;;;;5079575;28;20030;-70
2022/04/13 04:00:46;;;;;;;48.92;15.57;;;8.80;99.90;;;;;;5091568;28;20055;-70
2022/04/13 04:03:12;;;;;;;43.22;13.18;;;8.70;99.90;;;;;;5089724;28;20059;-70
2022/04/13 04:05:38;;;;;;;47.55;14.40;;;8.80;99.90;;;;;;5071701;28;20037;-72
2022/04/13 04:08:04;;;;;;;46.80;15.77;;;8.90;99.90;;;;;;5076823;28;20614;-70
2022/04/13 04:10:30;;;;;;;43.67;14.63;;;8.80;99.90;;;;;;5091271;28;20031;-69
2022/04/13 04:12:55;;;;;;;44.00;15.70;;;8.70;99.90;;;;;;5091240;28;20024;-70
2022/04/13 04:15:23;;;;;;;47.75;15.95;;;8.60;99.90;;;;;;5090493;28;20520;-69
2022/04/13 04:17:48;;;;;;;58.45;16.90;;;8.60;99.90;;;;;;5087281;28;20036;-70
2022/04/13 04:20:14;;;;;;;58.33;18.38;;;8.60;99.90;;;;;;5071671;28;20117;-70
2022/04/13 04:22:40;;;;;;;50.42;16.90;;;8.60;99.90;;;;;;5070460;28;20025;-70
2022/04/13 04:25:08;;;;;;;63.42;18.73;;;8.60;99.90;;;;;;5070687;28;20024;-70
2022/04/13 04:27:34;;;;;;;62.97;18.20;;;8.70;99.90;;;;;;5071602;28;20020;-70
2022/04/13 04:29:59;;;;;;;68.75;19.35;;;8.70;99.90;;;;;;5090958;28;20382;-70
2022/04/13 04:32:25;;;;;;;65.80;18.15;;;8.70;99.90;;;;;;5087511;28;20027;-69
2022/04/13 04:34:52;;;;;;;59.22;18.60;;;8.80;99.90;;;;;;5076468;28;20036;-70
2022/04/13 04:37:18;;;;;;;76.35;20.90;;;8.80;99.90;;;;;;5068203;28;20048;-70
2022/04/13 04:39:44;;;;;;;73.43;19.40;;;8.90;99.90;;;;;;5089159;28;20051;-69
2022/04/13 04:42:10;;;;;;;75.63;20.42;;;8.90;99.90;;;;;;5090790;28;20035;-71
2022/04/13 04:44:36;;;;;;;67.97;18.17;;;8.90;99.90;;;;;;5090463;28;20085;-70
2022/04/13 04:47:02;;;;;;;72.82;19.17;;;8.90;99.90;;;;;;5082685;28;20124;-69
2022/04/13 04:49:27;;;;;;;72.68;19.02;;;8.90;99.90;;;;;;5081111;28;20042;-71
2022/04/13 04:51:53;;;;;;;65.38;17.98;;;8.90;99.90;;;;;;5070448;28;20104;-70
2022/04/13 04:54:19;;;;;;;71.53;20.25;;;8.90;99.90;;;;;;5070497;28;20024;-70
2022/04/13 04:56:44;;;;;;;63.88;17.85;;;8.90;99.90;;;;;;5070087;28;20024;-70
2022/04/13 04:59:10;;;;;;;65.28;18.35;;;8.80;99.90;;;;;;5085273;28;20099;-68
2022/04/13 05:01:36;;;;;;;56.05;19.65;;;8.80;99.90;;;;;;5088816;28;20357;-69
2022/04/13 05:04:02;;;;;;;48.83;16.92;;;8.80;99.90;;;;;;5084697;28;20064;-69
2022/04/13 05:06:29;;;;;;;48.33;15.60;;;8.70;99.90;;;;;;5067360;28;20024;-69
2022/04/13 05:08:55;;;;;;;66.38;19.10;;;8.60;99.90;;;;;;5082902;28;20028;-70
2022/04/13 05:11:22;;;;;;;74.13;19.27;;;8.60;99.90;;;;;;5090504;28;20120;-70
2022/04/13 05:13:48;;;;;;;77.70;18.65;;;8.60;99.90;;;;;;5089184;28;20035;-70
2022/04/13 05:16:15;;;;;;;78.35;20.30;;;8.70;99.90;;;;;;5090183;28;20094;-70
2022/04/13 05:18:42;;;;;;;74.28;18.60;;;8.70;99.90;;;;;;5089913;28;20139;-71
2022/04/13 05:21:08;;;;;;;66.65;18.95;;;8.70;99.90;;;;;;5071628;28;20108;-69
2022/04/13 05:23:41;;;;;;;83.07;19.25;;;8.70;99.90;;;;;;5069900;28;20481;-69
2022/04/13 05:26:07;;;;;;;;;;;8.70;99.90;;;;;;5069115;28;20024;-68
2022/04/13 05:28:32;;;;;;;67.93;18.90;;;8.80;99.90;;;;;;5075693;28;19910;-69
2022/04/13 05:30:58;;;;;;;74.68;18.17;;;8.90;99.90;;;;;;5087217;28;20024;-69
2022/04/13 05:33:24;;;;;;;74.85;20.70;;;8.90;99.90;;;;;;5089568;28;20495;-69
2022/04/13 05:35:49;;;;;;;91.00;21.05;;;8.90;99.90;;;;;;5074456;28;20566;-67
2022/04/13 05:38:16;;;;;;;102.70;21.65;;;9.00;99.90;;;;;;5077010;28;20032;-68
2022/04/13 05:40:42;;;;;;;101.43;22.27;;;9.20;99.90;;;;;;5091963;28;20519;-70
2022/04/13 05:43:07;;;;;;;93.95;23.27;;;9.30;99.90;;;;;;5090729;28;20024;-67
2022/04/13 05:45:33;;;;;;;92.43;22.95;;;9.50;99.90;;;;;;5090740;28;20352;-69
2022/04/13 05:47:59;;;;;;;78.30;22.90;;;9.50;99.90;;;;;;5092448;28;20073;-68
2022/04/13 05:50:25;;;;;;;80.60;23.10;;;9.60;99.90;;;;;;5079551;28;20366;-69
2022/04/13 05:52:51;;;;;;;75.35;22.58;;;9.70;99.90;;;;;;5070358;28;20070;-69
2022/04/13 05:55:16;;;;;;;69.93;21.77;;;9.70;99.90;;;;;;5070003;28;20036;-68
2022/04/13 05:57:42;;;;;;;72.78;21.30;;;9.70;99.90;;;;;;5071225;28;20021;-68
2022/04/13 06:00:10;;;;;;;58.92;19.65;;;9.80;99.90;;;;;;5090378;28;20028;-68
2022/04/13 06:02:36;;;;;;;72.35;21.38;;;9.80;99.90;;;;;;5090089;28;20472;-69
2022/04/13 06:05:02;;;;;;;60.80;19.25;;;9.90;99.90;;;;;;5083799;28;20044;-69
2022/04/13 06:07:28;;;;;;;70.43;21.02;;;9.90;99.90;;;;;;5070374;28;20134;-69
2022/04/13 06:09:54;;;;;;;61.53;18.90;;;9.90;99.90;;;;;;5092848;28;20024;-68
2022/04/13 06:12:24;;;;;;;55.70;17.70;;;10.00;99.90;;;;;;5093503;28;20101;-69
2022/04/13 06:14:50;;;;;;;53.35;18.95;;;10.00;99.90;;;;;;5093372;28;20024;-67
2022/04/13 06:17:19;;;;;;;46.83;18.17;;;10.10;99.90;;;;;;5093350;28;20467;-68
2022/04/13 06:19:44;;;;;;;54.90;18.08;;;10.10;99.90;;;;;;5090190;28;20076;-69
2022/04/13 06:22:10;;;;;;;49.17;16.30;;;10.20;99.90;;;;;;5073244;28;20473;-69
2022/04/13 06:24:36;;;;;;;55.85;17.65;;;10.20;99.90;;;;;;5072779;28;20040;-69
2022/04/13 06:27:01;;;;;;;51.80;17.55;;;10.20;99.90;;;;;;5072893;28;20029;-68
2022/04/13 06:29:27;;;;;;;57.92;17.33;;;10.20;99.90;;;;;;5088674;28;20022;-68
2022/04/13 06:31:53;;;;;;;51.55;17.65;;;10.30;99.90;;;;;;5093453;28;20016;-69
2022/04/13 06:34:18;;;;;;;48.83;17.75;;;10.30;99.90;;;;;;5093260;28;20337;-69
2022/04/13 06:36:44;;;;;;;48.90;16.83;;;10.30;99.90;;;;;;5090971;28;20028;-69
2022/04/13 06:39:10;;;;;;;42.35;17.65;;;10.40;99.90;;;;;;5092731;28;20111;-69
2022/04/13 06:41:35;;;;;;;47.28;15.93;;;10.50;99.90;;;;;;5090967;28;20469;-69
2022/04/13 06:44:02;;;;;;;46.42;16.75;;;10.60;99.90;;;;;;5089151;28;20590;-69
2022/04/13 06:46:28;;;;;;;40.33;15.80;;;10.60;99.90;;;;;;5089490;28;20032;-68
2022/04/13 06:48:54;;;;;;;45.17;16.63;;;10.70;99.90;;;;;;5092432;28;20024;-68
2022/04/13 06:51:19;;;;;;;43.20;16.08;;;10.80;99.90;;;;;;5077929;28;20036;-69
2022/04/13 06:53:45;;;;;;;37.47;15.45;;;10.90;99.90;;;;;;5072304;28;20055;-69
2022/04/13 06:56:11;;;;;;;37.42;14.45;;;10.90;99.90;;;;;;5072449;28;20393;-69
2022/04/13 06:58:37;;;;;;;43.60;14.85;;;11.00;99.90;;;;;;5080616;28;20080;-69
2022/04/13 07:01:02;;;;;;;34.80;14.55;;;11.00;99.90;;;;;;5092588;28;20024;-69
2022/04/13 07:03:28;;;;;;;35.50;14.30;;;11.20;99.90;;;;;;5088947;28;20031;-68
2022/04/13 07:05:54;;;;;;;33.30;14.82;;;11.20;99.90;;;;;;5079430;28;20104;-69
2022/04/13 07:08:19;;;;;;;33.88;14.25;;;11.20;99.90;;;;;;5077640;28;20629;-69
2022/04/13 07:10:46;;;;;;;46.15;16.08;;;11.20;99.90;;;;;;5092145;28;20064;-68
2022/04/13 07:13:11;;;;;;;38.47;14.75;;;11.20;99.90;;;;;;5092249;28;20499;-69
2022/04/13 07:15:37;;;;;;;41.90;16.50;;;11.20;99.90;;;;;;5092043;28;20048;-70
2022/04/13 07:18:03;;;;;;;41.13;16.77;;;11.30;99.90;;;;;;5091922;28;20070;-67
2022/04/13 07:20:29;;;;;;;35.35;15.23;;;11.30;99.90;;;;;;5085847;28;20028;-69
2022/04/13 07:22:55;;;;;;;40.65;16.77;;;11.40;99.90;;;;;;5070460;28;20427;-68
2022/04/13 07:25:22;;;;;;;35.95;16.20;;;11.50;99.90;;;;;;5071795;28;20105;-68
2022/04/13 07:27:49;;;;;;;38.20;15.80;;;11.60;99.90;;;;;;5072989;28;20051;-69
2022/04/13 07:30:15;;;;;;;43.50;15.63;;;11.60;99.90;;;;;;5091744;28;20423;-69
2022/04/13 07:32:51;;;;;;;39.35;15.32;;;11.70;99.90;;;;;;5091718;28;20028;-69
2022/04/13 07:35:17;;;;;;;41.78;15.68;;;11.80;99.90;;;;;;5089768;28;20254;-68
2022/04/13 07:37:43;;;;;;;38.35;15.30;;;11.80;99.90;;;;;;5071733;28;20099;-68
2022/04/13 07:40:14;;;;;;;36.30;15.70;;;11.90;99.90;;;;;;5091816;28;20107;-68
2022/04/13 07:42:40;;;;;;;31.27;15.40;;;11.90;99.90;;;;;;5091745;28;20472;-68
2022/04/13 07:45:07;;;;;;;36.47;15.43;;;11.90;99.90;;;;;;5091663;28;20194;-69
2022/04/13 07:47:33;;;;;;;36.28;15.48;;;12.00;99.90;;;;;;5091583;28;20147;-70
2022/04/13 07:49:58;;;;;;;29.10;14.13;;;12.00;99.90;;;;;;5091681;28;20105;-69
2022/04/13 07:52:24;;;;;;;33.17;15.05;;;12.10;99.90;;;;;;5072654;28;20020;-69
2022/04/13 07:54:50;;;;;;;31.80;14.57;;;12.20;99.90;;;;;;5071133;28;20025;-69
2022/04/13 07:57:16;;;;;;;33.90;15.48;;;12.20;99.90;;;;;;5071155;28;20035;-70
2022/04/13 07:59:42;;;;;;;29.05;14.23;;;12.40;99.90;;;;;;5087822;28;20028;-69
2022/04/13 08:02:08;;;;;;;32.70;14.75;;;12.50;99.90;;;;;;5091314;28;20020;-68
2022/04/13 08:04:35;;;;;;;33.28;15.50;;;12.50;99.90;;;;;;5091286;28;20118;-69
2022/04/13 08:07:00;;;;;;;32.95;15.27;;;12.50;99.90;;;;;;5076931;28;20028;-68
2022/04/13 08:09:26;;;;;;;26.92;13.88;;;12.60;99.90;;;;;;5085519;28;20103;-68
2022/04/13 08:11:52;;;;;;;23.05;12.05;;;12.70;99.90;;;;;;5091568;28;20024;-70
2022/04/13 08:14:24;;;;;;;29.52;13.35;;;12.80;99.90;;;;;;5091212;28;20030;-68
2022/04/13 08:16:50;;;;;;;32.00;13.02;;;12.90;99.90;;;;;;5091255;28;20131;-67
2022/04/13 08:19:16;;;;;;;23.63;13.10;;;13.00;99.90;;;;;;5091235;28;20022;-69
2022/04/13 08:21:42;;;;;;;27.55;12.95;;;13.10;99.90;;;;;;5080183;28;20431;-68
2022/04/13 08:24:08;;;;;;;29.35;12.60;;;13.20;99.90;;;;;;5069428;28;20057;-68
2022/04/13 08:26:35;;;;;;;21.73;11.25;;;13.20;99.90;;;;;;5070810;28;20117;-69
2022/04/13 08:29:01;;;;;;;22.88;10.30;;;13.30;99.90;;;;;;5081452;28;20024;-68
2022/04/13 08:31:27;;;;;;;22.52;10.70;;;13.30;99.90;;;;;;5090955;28;20108;-69
2022/04/13 08:33:52;;;;;;;21.70;10.80;;;13.30;99.90;;;;;;5091089;28;20107;-68
2022/04/13 08:36:18;;;;;;;23.67;11.68;;;13.40;99.90;;;;;;5083867;28;20492;-69
2022/04/13 08:38:44;;;;;;;22.10;10.75;;;13.30;99.90;;;;;;5078711;28;20388;-68
2022/04/13 08:41:48;;;;;;;24.25;11.32;;;13.40;99.90;;;;;;5090754;28;20387;-69
2022/04/13 08:44:22;;;;;;;25.48;10.80;;;13.60;99.90;;;;;;5074398;28;20173;-68
2022/04/13 08:46:55;;;;;;;19.80;10.98;;;13.70;99.90;;;;;;5090563;28;20024;-68
2022/04/13 08:49:21;;;;;;;25.67;11.60;;;13.80;99.90;;;;;;5090658;28;20020;-69
2022/04/13 08:51:50;;;;;;;19.38;9.68;;;13.90;99.90;;;;;;5081897;28;20480;-69
2022/04/13 08:54:22;;;;;;;21.63;11.50;;;14.10;99.90;;;;;;5069578;28;20021;-70
2022/04/13 08:56:49;;;;;;;17.23;10.23;;;14.30;99.90;;;;;;5070528;28;20121;-68
2022/04/13 08:59:52;;;;;;;15.65;9.20;;;14.40;99.90;;;;;;5082821;28;20020;-69
2022/04/13 09:02:45;;;;;;;16.38;8.80;;;14.40;99.90;;;;;;5089182;28;20027;-69
2022/04/13 09:05:33;;;;;;;14.30;8.70;;;14.40;99.90;;;;;;5090918;28;20074;-69
2022/04/13 09:08:11;;;;;;;20.40;8.90;;;14.50;99.90;;;;;;5073715;28;20120;-68
2022/04/13 09:10:39;;;;;;;23.15;9.80;;;14.60;99.90;;;;;;5090520;28;20020;-68
2022/04/13 09:13:11;;;;;;;14.63;9.00;;;14.60;99.90;;;;;;5090368;28;20356;-69
2022/04/13 09:15:38;;;;;;;;;;;14.70;99.90;;;;;;5092723;28;20044;-68
2022/04/13 09:18:04;;;;;;;17.10;8.98;;;14.80;99.90;;;;;;5091171;28;20002;-68
2022/04/13 09:20:30;;;;;;;15.57;8.73;;;14.80;99.90;;;;;;5090995;28;20020;-69
2022/04/13 09:22:58;;;;;;;19.33;8.80;;;14.80;99.90;;;;;;5076398;28;20492;-69
2022/04/13 09:25:24;;;;;;;18.02;8.55;;;14.80;99.90;;;;;;5073929;28;20033;-68
2022/04/13 09:27:50;;;;;;;17.75;8.45;;;15.10;99.90;;;;;;5074170;28;20154;-68
2022/04/13 09:30:16;;;;;;;16.95;8.20;;;15.00;99.90;;;;;;5094382;28;20031;-69
2022/04/13 09:32:43;;;;;;;14.18;8.73;;;14.90;99.90;;;;;;5094345;28;20036;-68
2022/04/13 09:35:09;;;;;;;17.73;8.95;;;14.80;99.90;;;;;;5094152;28;20061;-68
2022/04/13 09:37:36;;;;;;;19.60;9.32;;;14.90;99.90;;;;;;5081617;28;20108;-68
2022/04/13 09:40:02;;;;;;;20.27;9.55;;;15.00;99.90;;;;;;5092165;28;20103;-68
2022/04/13 09:42:28;;;;;;;18.67;10.57;;;15.10;99.90;;;;;;5094069;28;20035;-69
2022/04/13 09:44:58;;;;;;;23.38;10.25;;;15.40;99.90;;;;;;5094058;28;20042;-68
2022/04/13 09:47:33;;;;;;;21.00;10.60;;;15.70;99.90;;;;;;5094069;28;20024;-69
2022/04/13 09:49:59;;;;;;;16.10;10.43;;;15.80;99.90;;;;;;5093724;28;20112;-68
2022/04/13 09:52:37;;;;;;;14.05;8.40;;;16.00;99.90;;;;;;5083239;28;20025;-68
2022/04/13 09:55:06;;;;;;;16.15;9.55;;;16.20;99.90;;;;;;5073415;28;20381;-68
2022/04/13 09:57:32;;;;;;;18.85;8.77;;;16.20;99.90;;;;;;5073502;28;20081;-66
2022/04/13 10:00:07;;;;;;;18.48;8.68;;;16.40;99.90;;;;;;5091459;28;20020;-68
2022/04/13 10:02:37;;;;;;;19.83;6.95;;;16.40;99.90;;;;;;5093552;28;20030;-68
2022/04/13 10:05:09;;;;;;;14.82;7.35;;;16.40;99.90;;;;;;5093168;28;20058;-68
2022/04/13 10:07:35;;;;;;;14.93;7.00;;;16.40;99.90;;;;;;5082783;28;20056;-67
2022/04/13 10:10:03;;;;;;;12.23;6.53;;;16.60;99.90;;;;;;5091253;28;20042;-68
2022/04/13 10:12:28;;;;;;;13.98;5.65;;;16.60;99.90;;;;;;5091856;28;20384;-68
2022/04/13 10:15:07;;;;;;;8.80;3.83;;;16.70;99.90;;;;;;5093221;28;20020;-67
2022/04/13 10:17:34;;;;;;;11.00;5.82;;;16.80;99.90;;;;;;5093339;28;20114;-68
2022/04/13 10:20:00;;;;;;;10.32;3.92;;;16.80;99.90;;;;;;5093245;28;20035;-68
2022/04/13 10:22:25;;;;;;;6.53;3.67;;;16.80;99.90;;;;;;5084934;28;20017;-68
2022/04/13 10:24:51;;;;;;;10.55;4.05;;;16.80;99.90;;;;;;5072420;28;20078;-67
2022/04/13 10:27:19;;;;;;;14.43;4.97;;;16.50;99.90;;;;;;5072347;28;20082;-66
2022/04/13 10:29:47;;;;;;;10.85;5.03;;;16.30;99.90;;;;;;5088234;28;20040;-67
2022/04/13 10:32:17;;;;;;;8.85;3.90;;;16.20;99.90;;;;;;5093330;28;20036;-68
2022/04/13 10:34:48;;;;;;;7.30;4.50;;;16.10;99.90;;;;;;5092820;28;20661;-70
2022/04/13 10:37:17;;;;;;;12.50;6.95;;;15.90;99.90;;;;;;5087222;28;20044;-68
2022/04/13 10:39:45;;;;;;;13.35;6.85;;;15.60;99.90;;;;;;5087884;28;20105;-68
2022/04/13 10:42:12;;;;;;;11.55;6.38;;;15.20;99.90;;;;;;5093030;28;20024;-67
2022/04/13 10:44:42;;;;;;;11.15;6.47;;;14.70;99.90;;;;;;5092890;28;20063;-68
2022/04/13 10:47:10;;;;;;;11.45;6.43;;;14.30;99.90;;;;;;5091637;28;20058;-67
2022/04/13 10:49:56;;;;;;;12.25;5.88;;;14.20;99.90;;;;;;5092806;28;20177;-67
2022/04/13 10:52:54;;;;;;;11.10;5.38;;;14.10;99.90;;;;;;5087205;28;20107;-68
2022/04/13 10:55:21;;;;;;;9.77;5.28;;;14.00;99.90;;;;;;5072569;28;20032;-68
2022/04/13 10:57:52;;;;;;;12.60;5.68;;;14.00;99.90;;;;;;5072632;28;20122;-67
2022/04/13 11:00:20;;;;;;;10.63;4.50;;;14.30;99.90;;;;;;5092232;28;20103;-67
2022/04/13 11:03:04;;;;;;;7.70;3.67;;;14.50;99.90;;;;;;5092524;28;20557;-68
2022/04/13 11:05:31;;;;;;;5.38;3.22;;;14.60;99.90;;;;;;5092602;28;20031;-67
2022/04/13 11:08:16;;;;;;;8.63;3.65;;;14.80;99.90;;;;;;5082982;28;20531;-67
2022/04/13 11:10:47;;;;;;;7.32;3.45;;;15.20;99.90;;;;;;5072195;28;20121;-68
2022/04/13 11:13:14;;;;;;;5.50;3.22;;;15.50;99.90;;;;;;5072128;28;20167;-68
2022/04/13 11:15:46;;;;;;;6.43;3.88;;;15.50;99.90;;;;;;5071872;28;20048;-67
2022/04/13 11:18:17;;;;;;;12.48;6.32;;;15.50;99.90;;;;;;5073816;28;20036;-67
2022/04/13 11:20:58;;;;;;;3.55;1.98;;;15.60;99.90;;;;;;5091982;28;20017;-68
2022/04/13 11:23:54;;;;;;;11.73;6.32;;;15.30;99.90;;;;;;5080167;28;20079;-69
2022/04/13 11:26:34;;;;;;;7.32;3.20;;;15.20;99.90;;;;;;5071550;28;20029;-68
2022/04/13 11:29:09;;;;;;;7.68;2.85;;;15.10;99.90;;;;;;5080156;28;20024;-67
2022/04/13 11:32:00;;;;;;;10.05;2.97;;;15.20;99.90;;;;;;5091936;28;20095;-68
2022/04/13 11:34:30;;;;;;;6.32;2.80;;;15.20;99.90;;;;;;5091740;28;20034;-68
2022/04/13 11:37:02;;;;;;;7.97;2.70;;;15.00;99.90;;;;;;5091737;28;20027;-69
2022/04/13 11:39:43;;;;;;;;;;;15.00;99.90;;;;;;5091894;28;20032;-68
2022/04/13 11:42:16;;;;;;;13.43;2.97;;;15.00;99.90;;;;;;5092024;28;19930;-67
2022/04/13 11:44:51;;;;;;;6.15;3.55;;;15.20;99.90;;;;;;5091673;28;20032;-67
2022/04/13 11:47:18;;;;;;;11.20;4.22;;;15.30;99.90;;;;;;5091830;28;20024;-67
2022/04/13 11:50:00;;;;;;;9.07;4.03;;;15.40;99.90;;;;;;5091849;28;20031;-67
2022/04/13 11:52:48;;;;;;;10.30;3.53;;;15.20;99.90;;;;;;5088997;28;20028;-67
2022/04/13 11:55:18;;;;;;;8.45;3.65;;;15.20;99.90;;;;;;5071774;28;20034;-68
2022/04/13 11:58:08;;;;;;;7.32;3.88;;;15.40;99.90;;;;;;5071243;28;20021;-67
2022/04/13 12:01:08;;;;;;;7.57;3.28;;;15.80;99.90;;;;;;5071113;28;20560;-67
2022/04/13 12:03:40;;;;;;;8.88;4.07;;;16.00;99.90;;;;;;5068375;28;20455;-66
2022/04/13 12:06:09;;;;;;;7.72;3.70;;;16.40;99.90;;;;;;5068270;28;20026;-66
2022/04/13 12:08:46;;;;;;;10.27;3.85;;;16.60;99.90;;;;;;5074477;28;20084;-67
2022/04/13 12:11:19;;;;;;;8.98;4.18;;;17.00;99.90;;;;;;5091351;28;20032;-67
2022/04/13 12:13:59;;;;;;;9.60;2.95;;;17.30;99.90;;;;;;5090078;28;20016;-67
2022/04/13 12:16:26;;;;;;;7.70;3.58;;;17.60;99.90;;;;;;5091027;28;20459;-67
2022/04/13 12:18:54;;;;;;;7.55;3.30;;;17.80;99.90;;;;;;5089706;28;20020;-67
2022/04/13 12:21:22;;;;;;;7.22;3.38;;;18.00;99.90;;;;;;5091082;28;20028;-67
2022/04/13 12:23:51;;;;;;;5.93;2.78;;;18.20;99.90;;;;;;5079059;28;20139;-66
2022/04/13 12:26:28;;;;;;;6.18;3.15;;;18.30;99.90;;;;;;5070730;28;20028;-68
2022/04/13 12:28:54;;;;;;;6.43;3.25;;;18.20;98.90;;;;;;5077694;28;20059;-67
2022/04/13 12:31:19;;;;;;;5.55;3.45;;;18.30;99.90;;;;;;5091200;28;20031;-67
2022/04/13 12:33:45;;;;;;;7.00;3.08;;;18.80;98.30;;;;;;5090743;28;20095;-66
2022/04/13 12:36:12;;;;;;;7.97;3.67;;;18.90;97.90;;;;;;5090497;28;20024;-68
2022/04/13 12:38:49;;;;;;;7.68;3.60;;;19.30;95.80;;;;;;5084972;28;20383;-68
2022/04/13 12:41:19;;;;;;;6.80;2.30;;;19.40;94.50;;;;;;5090698;28;20104;-67
2022/04/13 12:44:00;;;;;;;5.72;2.80;;;19.50;93.00;;;;;;5090748;28;20056;-67